Time;durP1;ratioP1;P1;durP2;ratioP2;P2;SDS_P1;SDS_P2;PMS_P1;PMS_P2;Temp;Humidity;BMP_temperature;BMP_pressure;BME280_temperature;BME280_humidity;BME280_pressure;Samples;Min_cycle;Max_cycle;Signal;HPM_P1;HPM_P2
2021/07/11 00:00:48;;;;;;;20.88;12.38;;;;;13.70;100979.00;;;;5107808;28;20043;-76
2021/07/11 00:03:15;;;;;;;20.42;11.77;;;;;13.70;100982.00;;;;5107244;28;20048;-76
2021/07/11 00:05:42;;;;;;;19.55;11.45;;;;;13.80;100967.00;;;;5107510;28;20039;-75
2021/07/11 00:08:08;;;;;;;24.25;11.98;;;;;13.80;100982.00;;;;5116571;28;20023;-75
2021/07/11 00:10:35;;;;;;;22.08;11.88;;;;;13.90;100960.00;;;;5121356;28;20091;-75
2021/07/11 00:13:02;;;;;;;19.98;13.15;;;;;13.80;100969.00;;;;5112465;28;20024;-75
2021/07/11 00:15:29;;;;;;;29.77;12.98;;;;;13.70;100949.00;;;;5107171;28;20035;-76
2021/07/11 00:17:57;;;;;;;18.42;12.90;;;;;13.80;100953.00;;;;5107182;28;20106;-76
2021/07/11 00:20:25;;;;;;;19.20;12.18;;;;;13.80;100962.00;;;;5089295;28;20032;-76
2021/07/11 00:22:52;;;;;;;31.10;13.60;;;;;13.70;100959.00;;;;5106711;28;20131;-76
2021/07/11 00:25:19;;;;;;;22.35;12.95;;;;;13.70;100966.00;;;;5106334;28;20035;-76
2021/07/11 00:27:46;;;;;;;22.67;13.25;;;;;13.70;100974.00;;;;5107003;28;20038;-76
2021/07/11 00:30:15;;;;;;;17.00;12.52;;;;;13.60;100976.00;;;;5107128;28;20043;-76
2021/07/11 00:32:42;;;;;;;23.58;13.00;;;;;13.50;100977.00;;;;5109301;28;20067;-76
2021/07/11 00:35:10;;;;;;;23.95;14.07;;;;;13.50;100942.00;;;;5110472;28;20024;-75
2021/07/11 00:37:36;;;;;;;20.58;13.98;;;;;13.40;100952.00;;;;5109875;28;20096;-76
2021/07/11 00:40:05;;;;;;;29.13;14.27;;;;;13.40;100944.00;;;;5110110;28;20035;-76
2021/07/11 00:42:32;;;;;;;25.67;13.85;;;;;13.40;100947.00;;;;5110544;28;20114;-75
2021/07/11 00:44:58;;;;;;;21.25;13.07;;;;;13.40;100946.00;;;;5110480;28;20478;-76
2021/07/11 00:47:25;;;;;;;22.48;12.85;;;;;13.40;100969.00;;;;5110549;28;20028;-76
2021/07/11 00:49:52;;;;;;;20.20;12.40;;;;;13.40;100950.00;;;;5110022;28;20088;-76
2021/07/11 00:52:18;;;;;;;19.23;12.38;;;;;13.40;100967.00;;;;5109796;28;20031;-75
2021/07/11 00:54:45;;;;;;;24.33;12.10;;;;;13.40;100958.00;;;;5110230;28;20027;-76
2021/07/11 00:57:12;;;;;;;17.92;12.38;;;;;13.40;100955.00;;;;5091678;28;20479;-76
2021/07/11 00:59:40;;;;;;;20.15;12.27;;;;;13.30;100953.00;;;;5109920;28;20525;-75
2021/07/11 01:02:09;;;;;;;18.23;13.30;;;;;13.30;100957.00;;;;5110257;28;20050;-75
2021/07/11 01:04:58;;;;;;;20.00;11.90;;;;;13.40;100965.00;;;;5110326;28;20142;-76
2021/07/11 01:07:35;;;;;;;26.73;13.02;;;;;13.30;100940.00;;;;5109590;28;20019;-75
2021/07/11 01:10:10;;;;;;;21.65;13.70;;;;;13.20;100925.00;;;;5109417;28;20031;-76
2021/07/11 01:12:44;;;;;;;27.83;14.38;;;;;13.20;100946.00;;;;5109605;28;20032;-76
2021/07/11 01:15:11;;;;;;;29.17;13.50;;;;;13.40;100927.00;;;;5110182;28;20038;-75
2021/07/11 01:17:39;;;;;;;32.78;12.20;;;;;13.40;100936.00;;;;5109150;28;20042;-75
2021/07/11 01:20:22;;;;;;;20.30;14.70;;;;;13.30;100950.00;;;;5107937;28;20031;-75
2021/07/11 01:22:52;;;;;;;21.40;13.50;;;;;13.20;100952.00;;;;5108448;28;20039;-75
2021/07/11 01:25:30;;;;;;;19.88;11.65;;;;;13.30;100941.00;;;;5108815;28;20146;-76
2021/07/11 01:27:57;;;;;;;16.90;12.70;;;;;13.30;100945.00;;;;5108773;28;20110;-76
2021/07/11 01:30:24;;;;;;;24.88;13.52;;;;;13.30;100941.00;;;;5109597;28;20028;-75
2021/07/11 01:32:51;;;;;;;22.98;12.57;;;;;13.10;100950.00;;;;5109358;28;20080;-75
2021/07/11 01:35:18;;;;;;;21.30;11.00;;;;;13.10;100922.00;;;;5110479;28;20403;-76
2021/07/11 01:37:45;;;;;;;16.80;10.80;;;;;13.10;100916.00;;;;5109034;28;20031;-76
2021/07/11 01:40:13;;;;;;;17.08;11.40;;;;;13.10;100933.00;;;;5109033;28;20043;-76
2021/07/11 01:42:40;;;;;;;23.65;12.88;;;;;13.10;100947.00;;;;5109252;28;20114;-76
2021/07/11 01:45:07;;;;;;;23.00;13.07;;;;;13.00;100948.00;;;;5108889;28;20031;-76
2021/07/11 01:47:35;;;;;;;18.40;13.32;;;;;13.00;100927.00;;;;5108856;28;20402;-76
2021/07/11 01:50:03;;;;;;;23.98;13.13;;;;;13.00;100934.00;;;;5109632;28;20031;-75
2021/07/11 01:52:30;;;;;;;18.88;11.10;;;;;13.00;100945.00;;;;5109003;28;20024;-76
2021/07/11 01:54:56;;;;;;;25.58;12.82;;;;;12.90;100915.00;;;;5108729;28;20106;-76
2021/07/11 01:57:23;;;;;;;21.83;11.82;;;;;12.90;100930.00;;;;5108899;28;20020;-76
2021/07/11 01:59:50;;;;;;;29.33;12.05;;;;;12.90;100940.00;;;;5109137;28;20032;-75
2021/07/11 02:02:16;;;;;;;29.25;12.18;;;;;13.00;100909.00;;;;5108751;28;20019;-76
2021/07/11 02:04:43;;;;;;;31.83;11.95;;;;;13.10;100907.00;;;;5109029;28;20043;-76
2021/07/11 02:07:09;;;;;;;26.48;12.32;;;;;13.10;100927.00;;;;5090655;28;20080;-75
2021/07/11 02:09:36;;;;;;;25.45;13.23;;;;;13.10;100903.00;;;;5109069;28;20098;-76
2021/07/11 02:12:05;;;;;;;37.22;15.43;;;;;13.20;100924.00;;;;5109075;28;20504;-76
2021/07/11 02:14:35;;;;;;;28.73;12.77;;;;;13.20;100933.00;;;;5108619;28;20027;-76
2021/07/11 02:17:13;;;;;;;20.50;13.50;;;;;13.10;100937.00;;;;5108685;28;20036;-76
2021/07/11 02:19:41;;;;;;;23.40;11.07;;;;;13.20;100930.00;;;;5108731;28;20030;-76
2021/07/11 02:22:11;;;;;;;20.75;10.82;;;;;13.20;100945.00;;;;5108321;28;20059;-76
2021/07/11 02:24:40;;;;;;;17.73;11.25;;;;;13.30;100941.00;;;;5108619;28;20169;-76
2021/07/11 02:27:08;;;;;;;19.88;11.32;;;;;13.20;100923.00;;;;5108104;28;20032;-75
2021/07/11 02:29:40;;;;;;;49.22;25.45;;;;;13.20;100921.00;;;;5108630;28;20577;-76
2021/07/11 02:32:08;;;;;;;;;;;;;13.20;100943.00;;;;5108659;28;20028;-76
2021/07/11 02:34:36;;;;;;;47.78;23.13;;;;;13.10;100920.00;;;;5108507;28;19918;-75
2021/07/11 02:37:04;;;;;;;32.67;19.55;;;;;13.10;100921.00;;;;5109027;28;20104;-76
2021/07/11 02:39:32;;;;;;;26.55;15.07;;;;;13.10;100946.00;;;;5108587;28;20023;-76
2021/07/11 02:42:03;;;;;;;21.42;14.30;;;;;13.10;100913.00;;;;5108263;28;20032;-76
2021/07/11 02:44:30;;;;;;;25.65;15.23;;;;;13.00;100921.00;;;;5107894;28;20540;-75
2021/07/11 02:47:20;;;;;;;25.55;14.15;;;;;12.90;100946.00;;;;5108298;28;20031;-76
2021/07/11 02:49:50;;;;;;;32.78;15.13;;;;;12.70;100941.00;;;;5107726;28;20445;-75
2021/07/11 02:52:20;;;;;;;27.02;14.68;;;;;12.70;100945.00;;;;5108058;28;20026;-76
2021/07/11 02:55:05;;;;;;;29.42;15.05;;;;;12.60;100947.00;;;;5107238;28;20521;-75
2021/07/11 02:57:33;;;;;;;29.02;13.63;;;;;12.60;100938.00;;;;5107851;28;20031;-76
2021/07/11 03:00:01;;;;;;;20.00;13.50;;;;;12.60;100941.00;;;;5108155;28;20035;-76
2021/07/11 03:02:29;;;;;;;23.42;12.85;;;;;12.50;100935.00;;;;5107734;28;20425;-75
2021/07/11 03:04:56;;;;;;;19.90;13.23;;;;;12.50;100949.00;;;;5107818;28;20399;-75
2021/07/11 03:07:23;;;;;;;16.67;12.57;;;;;12.40;100937.00;;;;5108226;28;20023;-75
2021/07/11 03:09:50;;;;;;;22.27;12.30;;;;;12.40;100954.00;;;;5107891;28;20027;-75
2021/07/11 03:12:18;;;;;;;24.90;14.45;;;;;12.40;100954.00;;;;5108148;28;20487;-76
2021/07/11 03:14:49;;;;;;;23.35;13.85;;;;;12.40;100962.00;;;;5107935;28;20032;-75
2021/07/11 03:17:20;;;;;;;33.35;17.40;;;;;12.30;100951.00;;;;5107535;28;20055;-76
2021/07/11 03:19:50;;;;;;;21.40;12.98;;;;;12.20;100946.00;;;;5107647;28;20071;-76
2021/07/11 03:22:21;;;;;;;26.77;14.45;;;;;12.20;100963.00;;;;5107254;28;20019;-75
2021/07/11 03:24:50;;;;;;;31.80;14.25;;;;;12.20;100933.00;;;;5107596;28;20032;-75
2021/07/11 03:27:17;;;;;;;23.80;16.30;;;;;12.20;100951.00;;;;5107422;28;20081;-75
2021/07/11 03:30:16;;;;;;;21.20;14.05;;;;;12.10;100960.00;;;;5107356;28;20029;-76
2021/07/11 03:32:49;;;;;;;26.77;13.05;;;;;12.10;100963.00;;;;5091428;28;20112;-76
2021/07/11 03:35:17;;;;;;;18.23;12.68;;;;;12.10;100960.00;;;;5107540;28;20130;-76
2021/07/11 03:37:48;;;;;;;19.77;13.27;;;;;12.10;100983.00;;;;5107700;28;20028;-75
2021/07/11 03:40:25;;;;;;;17.47;12.63;;;;;12.10;100969.00;;;;5107480;28;20035;-75
2021/07/11 03:42:55;;;;;;;20.70;13.68;;;;;12.00;100974.00;;;;5106926;28;20269;-76
2021/07/11 03:45:22;;;;;;;18.58;13.48;;;;;12.10;100955.00;;;;5107279;28;20028;-76
2021/07/11 03:48:03;;;;;;;24.27;13.15;;;;;12.00;100931.00;;;;5107090;28;20398;-76
2021/07/11 03:50:30;;;;;;;26.67;13.02;;;;;12.10;100955.00;;;;5107167;28;20760;-76
2021/07/11 03:53:04;;;;;;;24.05;12.30;;;;;12.10;100977.00;;;;5107683;28;20388;-75
2021/07/11 03:55:33;;;;;;;20.38;11.13;;;;;12.00;100966.00;;;;5107476;28;20513;-76
2021/07/11 03:58:01;;;;;;;16.08;12.02;;;;;12.30;101016.00;;;;5107472;28;20514;-75
2021/07/11 04:00:29;;;;;;;20.58;12.52;;;;;13.20;100986.00;;;;5107148;28;20027;-75
2021/07/11 04:02:56;;;;;;;19.65;12.25;;;;;13.10;100976.00;;;;5107403;28;20050;-75
2021/07/11 04:05:26;;;;;;;19.75;12.15;;;;;13.00;101014.00;;;;5106691;28;20457;-75
2021/07/11 04:07:55;;;;;;;22.00;12.38;;;;;12.90;101010.00;;;;5111079;28;20027;-75
2021/07/11 04:10:27;;;;;;;20.27;11.77;;;;;12.80;101016.00;;;;5110984;28;20024;-75
2021/07/11 04:12:54;;;;;;;16.23;12.20;;;;;12.70;101006.00;;;;5110996;28;20027;-75
2021/07/11 04:15:22;;;;;;;19.67;12.77;;;;;12.70;100977.00;;;;5110914;28;21990;-75
2021/07/11 04:17:50;;;;;;;17.35;13.57;;;;;12.50;101011.00;;;;5110922;28;20034;-75
2021/07/11 04:20:19;;;;;;;22.02;14.23;;;;;12.40;100989.00;;;;5110884;28;20031;-75
2021/07/11 04:22:48;;;;;;;19.77;15.73;;;;;12.40;101008.00;;;;5111127;28;20020;-75
2021/07/11 04:25:16;;;;;;;24.48;14.82;;;;;12.20;101006.00;;;;5111102;28;20379;-75
2021/07/11 04:27:43;;;;;;;23.67;14.85;;;;;12.10;101016.00;;;;5110962;28;20024;-75
2021/07/11 04:30:10;;;;;;;20.27;14.88;;;;;12.10;101018.00;;;;5111339;28;20386;-75
2021/07/11 04:32:37;;;;;;;16.52;14.25;;;;;12.10;101018.00;;;;5110537;28;20038;-75
2021/07/11 04:35:04;;;;;;;20.60;13.93;;;;;12.10;101002.00;;;;5110249;28;20043;-75
2021/07/11 04:37:31;;;;;;;23.95;14.65;;;;;12.00;101022.00;;;;5110264;28;20024;-75
2021/07/11 04:39:57;;;;;;;25.30;15.70;;;;;11.90;101017.00;;;;5110529;28;20030;-75
2021/07/11 04:42:24;;;;;;;28.35;17.73;;;;;11.90;101022.00;;;;5092259;28;20039;-75
2021/07/11 04:44:51;;;;;;;23.90;18.23;;;;;11.80;101023.00;;;;5110606;28;20027;-75
2021/07/11 04:47:19;;;;;;;22.23;16.92;;;;;11.80;101009.00;;;;5110094;28;20084;-75
2021/07/11 04:49:45;;;;;;;26.85;17.42;;;;;11.70;101010.00;;;;5110210;28;20483;-75
2021/07/11 04:52:12;;;;;;;24.45;17.20;;;;;11.70;101002.00;;;;5091783;28;20024;-75
2021/07/11 04:54:39;;;;;;;24.95;18.70;;;;;11.70;100999.00;;;;5110843;28;20029;-75
2021/07/11 04:57:05;;;;;;;32.08;18.88;;;;;11.60;100996.00;;;;5110051;28;20032;-75
2021/07/11 04:59:32;;;;;;;27.38;19.23;;;;;11.50;101033.00;;;;5110680;28;20031;-75
2021/07/11 05:01:59;;;;;;;30.52;19.48;;;;;11.50;101018.00;;;;5109698;28;20027;-75
2021/07/11 05:04:25;;;;;;;27.63;19.00;;;;;11.50;101022.00;;;;5110409;28;20088;-75
2021/07/11 05:06:52;;;;;;;23.77;18.75;;;;;11.50;101019.00;;;;5110343;28;20027;-75
2021/07/11 05:09:18;;;;;;;26.02;18.45;;;;;11.50;101019.00;;;;5110048;28;20463;-75
2021/07/11 05:11:45;;;;;;;35.03;20.20;;;;;11.60;101009.00;;;;5110061;28;20034;-75
2021/07/11 05:14:12;;;;;;;28.88;18.85;;;;;11.50;101043.00;;;;5109956;28;20066;-75
2021/07/11 05:16:38;;;;;;;29.88;18.50;;;;;11.50;101019.00;;;;5109547;28;20043;-75
2021/07/11 05:19:05;;;;;;;25.73;16.90;;;;;11.50;101023.00;;;;5108934;28;20378;-75
2021/07/11 05:21:31;;;;;;;28.25;20.35;;;;;11.40;101024.00;;;;5110376;28;20528;-75
2021/07/11 05:23:58;;;;;;;26.95;19.98;;;;;11.40;101043.00;;;;5110172;28;20031;-75
2021/07/11 05:26:25;;;;;;;30.20;22.98;;;;;11.40;101044.00;;;;5109987;28;20440;-75
2021/07/11 05:28:52;;;;;;;30.13;22.80;;;;;11.40;101035.00;;;;5109367;28;20032;-75
2021/07/11 05:31:19;;;;;;;29.75;22.17;;;;;11.40;101049.00;;;;5109314;28;20027;-75
2021/07/11 05:33:46;;;;;;;30.50;21.88;;;;;11.40;101040.00;;;;5109087;28;20023;-75
2021/07/11 05:36:14;;;;;;;38.97;21.58;;;;;11.40;101052.00;;;;5108721;28;20553;-75
2021/07/11 05:38:41;;;;;;;34.28;23.42;;;;;11.40;101029.00;;;;5109205;28;20458;-75
2021/07/11 05:41:08;;;;;;;37.08;23.00;;;;;11.40;101054.00;;;;5109608;28;20031;-75
2021/07/11 05:43:35;;;;;;;36.45;25.73;;;;;11.30;101045.00;;;;5109066;28;20031;-75
2021/07/11 05:46:02;;;;;;;33.05;24.50;;;;;11.30;101048.00;;;;5109475;28;20024;-75
2021/07/11 05:48:28;;;;;;;28.42;24.77;;;;;11.30;101065.00;;;;5110983;28;20024;-75
2021/07/11 05:50:55;;;;;;;30.83;23.85;;;;;11.30;101063.00;;;;5110840;28;20080;-75
2021/07/11 05:53:22;;;;;;;36.90;26.55;;;;;11.30;101045.00;;;;5109965;28;20549;-75
2021/07/11 05:55:49;;;;;;;34.13;27.55;;;;;11.20;101053.00;;;;5108670;28;20533;-75
2021/07/11 05:58:15;;;;;;;35.38;27.40;;;;;11.10;101071.00;;;;5108832;28;20028;-75
2021/07/11 06:00:42;;;;;;;34.22;26.92;;;;;11.10;101075.00;;;;5108752;28;20815;-75
2021/07/11 06:03:09;;;;;;;36.70;25.52;;;;;11.20;101053.00;;;;5109047;28;20043;-75
2021/07/11 06:05:42;;;;;;;31.33;24.50;;;;;11.20;101070.00;;;;5109195;28;20077;-75
2021/07/11 06:08:09;;;;;;;37.05;27.20;;;;;11.10;101079.00;;;;5109423;28;20024;-75
2021/07/11 06:10:36;;;;;;;33.10;25.77;;;;;11.10;101061.00;;;;5108871;28;20062;-75
2021/07/11 06:13:03;;;;;;;38.00;28.35;;;;;11.00;101062.00;;;;5109411;28;20035;-75
2021/07/11 06:15:29;;;;;;;32.20;25.50;;;;;11.10;101052.00;;;;5109336;28;20043;-75
2021/07/11 06:17:56;;;;;;;35.10;25.08;;;;;11.10;101080.00;;;;5109214;28;20023;-75
2021/07/11 06:20:24;;;;;;;33.95;23.30;;;;;11.10;101044.00;;;;5109040;28;20395;-75
2021/07/11 06:22:51;;;;;;;32.70;23.90;;;;;11.10;101042.00;;;;5108159;28;20040;-75
2021/07/11 06:25:19;;;;;;;26.27;22.25;;;;;11.00;101056.00;;;;5108366;28;20135;-75
2021/07/11 06:27:46;;;;;;;31.42;23.85;;;;;11.00;101060.00;;;;5108391;28;20031;-75
2021/07/11 06:30:16;;;;;;;31.40;24.80;;;;;11.00;101086.00;;;;5108567;28;20031;-75
2021/07/11 06:32:45;;;;;;;32.40;23.83;;;;;11.00;101077.00;;;;5108590;28;20023;-75
2021/07/11 06:35:14;;;;;;;36.17;24.25;;;;;10.90;101046.00;;;;5107992;28;20027;-75
2021/07/11 06:37:41;;;;;;;33.28;24.77;;;;;10.90;101072.00;;;;5108292;28;20028;-75
2021/07/11 06:40:09;;;;;;;39.00;25.17;;;;;10.90;101070.00;;;;5108337;28;20038;-75
2021/07/11 06:42:36;;;;;;;32.35;24.55;;;;;10.90;101049.00;;;;5108545;28;20040;-75
2021/07/11 06:45:03;;;;;;;31.83;22.10;;;;;10.80;101079.00;;;;5108714;28;20449;-75
2021/07/11 06:47:30;;;;;;;40.33;23.52;;;;;10.80;101081.00;;;;5108306;28;20140;-75
2021/07/11 06:49:56;;;;;;;32.13;23.58;;;;;10.80;101058.00;;;;5107887;28;20023;-75
2021/07/11 06:52:23;;;;;;;37.85;21.98;;;;;10.80;101056.00;;;;5108544;28;20038;-75
2021/07/11 06:54:51;;;;;;;28.85;23.65;;;;;10.70;101040.00;;;;5107862;28;20022;-75
2021/07/11 06:57:20;;;;;;;31.00;23.90;;;;;10.70;101077.00;;;;5107302;28;20460;-75
2021/07/11 06:59:47;;;;;;;32.33;22.25;;;;;10.80;101071.00;;;;5107940;28;20659;-75
2021/07/11 07:02:14;;;;;;;32.42;22.25;;;;;10.80;101049.00;;;;5108268;28;20111;-75
2021/07/11 07:04:41;;;;;;;31.60;21.98;;;;;10.80;101044.00;;;;5107362;28;20460;-75
2021/07/11 07:07:07;;;;;;;32.95;23.83;;;;;10.90;101067.00;;;;5108253;28;20030;-75
2021/07/11 07:09:34;;;;;;;32.30;23.02;;;;;10.80;101026.00;;;;5107671;28;20399;-75
2021/07/11 07:12:00;;;;;;;30.05;22.67;;;;;10.90;101069.00;;;;5107907;28;20440;-75
2021/07/11 07:14:27;;;;;;;26.90;21.05;;;;;10.80;101057.00;;;;5107892;28;20061;-75
2021/07/11 07:16:54;;;;;;;29.77;21.25;;;;;10.80;101047.00;;;;5107828;28;20038;-75
2021/07/11 07:19:20;;;;;;;30.85;20.77;;;;;10.80;101057.00;;;;5107357;28;20031;-75
2021/07/11 07:21:47;;;;;;;27.63;22.08;;;;;10.80;101072.00;;;;5107668;28;20069;-75
2021/07/11 07:24:14;;;;;;;27.52;20.90;;;;;10.80;101037.00;;;;5108021;28;20376;-75
2021/07/11 07:26:41;;;;;;;28.30;22.13;;;;;10.80;101047.00;;;;5107573;28;20036;-75
2021/07/11 07:29:08;;;;;;;30.45;22.05;;;;;10.70;101050.00;;;;5107240;28;20038;-75
2021/07/11 07:31:36;;;;;;;27.42;21.77;;;;;10.70;101050.00;;;;5107455;28;20061;-75
2021/07/11 07:34:03;;;;;;;27.45;20.40;;;;;10.70;101056.00;;;;5107132;28;20057;-75
2021/07/11 07:36:30;;;;;;;28.83;21.88;;;;;10.70;101053.00;;;;5107430;28;20031;-75
2021/07/11 07:38:57;;;;;;;28.70;21.70;;;;;10.70;101061.00;;;;5107201;28;20099;-75
2021/07/11 07:41:24;;;;;;;37.05;22.67;;;;;10.80;101074.00;;;;5107513;28;20047;-75
2021/07/11 07:43:50;;;;;;;32.60;23.33;;;;;10.70;101078.00;;;;5107360;28;20028;-75
2021/07/11 07:46:17;;;;;;;30.67;21.02;;;;;10.60;101063.00;;;;5107024;28;20046;-75
2021/07/11 07:48:44;;;;;;;30.35;20.10;;;;;10.60;101071.00;;;;5107182;28;20077;-75
2021/07/11 07:51:11;;;;;;;24.08;19.52;;;;;10.60;101080.00;;;;5107370;28;20562;-75
2021/07/11 07:53:38;;;;;;;26.13;19.77;;;;;10.60;101065.00;;;;5107173;28;20394;-75
2021/07/11 07:56:04;;;;;;;23.95;20.20;;;;;10.60;101075.00;;;;5107905;28;20080;-75
2021/07/11 07:58:31;;;;;;;32.90;21.13;;;;;10.60;101067.00;;;;5107839;28;20019;-75
2021/07/11 08:00:58;;;;;;;32.63;22.50;;;;;10.60;101061.00;;;;5106890;28;20032;-75
2021/07/11 08:03:24;;;;;;;29.33;19.45;;;;;10.60;101087.00;;;;5106649;28;20515;-75
2021/07/11 08:05:51;;;;;;;30.33;19.85;;;;;10.60;101082.00;;;;5107353;28;20520;-75
2021/07/11 08:08:17;;;;;;;28.83;20.45;;;;;10.70;101061.00;;;;5107708;28;20077;-75
2021/07/11 08:10:44;;;;;;;24.67;19.95;;;;;10.80;101080.00;;;;5107240;28;20032;-74
2021/07/11 08:13:10;;;;;;;32.05;20.55;;;;;10.90;101063.00;;;;5106970;28;20054;-75
2021/07/11 08:15:37;;;;;;;22.70;18.80;;;;;11.00;101071.00;;;;5106623;28;20542;-75
2021/07/11 08:18:04;;;;;;;27.88;19.38;;;;;11.00;101067.00;;;;5106526;28;20034;-75
2021/07/11 08:20:30;;;;;;;25.98;19.67;;;;;11.10;101086.00;;;;5107255;28;20039;-75
2021/07/11 08:22:58;;;;;;;27.05;18.45;;;;;11.10;101084.00;;;;5106856;28;20757;-74
2021/07/11 08:25:24;;;;;;;27.73;21.63;;;;;11.20;101091.00;;;;5106673;28;20410;-75
2021/07/11 08:27:51;;;;;;;28.50;21.65;;;;;11.40;101074.00;;;;5107525;28;20445;-75
2021/07/11 08:30:18;;;;;;;26.30;20.85;;;;;11.40;101072.00;;;;5106723;28;20546;-75
2021/07/11 08:32:47;;;;;;;34.55;21.63;;;;;11.50;101076.00;;;;5107080;28;20023;-75
2021/07/11 08:35:14;;;;;;;31.02;21.65;;;;;11.60;101060.00;;;;5106847;28;20062;-75
2021/07/11 08:37:40;;;;;;;26.98;21.40;;;;;11.60;101054.00;;;;5106376;28;20027;-75
2021/07/11 08:40:09;;;;;;;26.25;20.83;;;;;11.70;101073.00;;;;5107256;28;20023;-75
2021/07/11 08:42:39;;;;;;;26.83;20.17;;;;;11.80;101070.00;;;;5106639;28;20119;-75
2021/07/11 08:45:07;;;;;;;23.95;19.55;;;;;11.90;101101.00;;;;5106735;28;20106;-75
2021/07/11 08:47:35;;;;;;;28.45;20.30;;;;;11.90;101085.00;;;;5106463;28;20519;-75
2021/07/11 08:50:02;;;;;;;27.85;20.10;;;;;12.00;101079.00;;;;5106714;28;20027;-75
2021/07/11 08:52:29;;;;;;;22.52;19.63;;;;;12.10;101063.00;;;;5107256;28;20028;-75
2021/07/11 08:54:56;;;;;;;21.90;19.10;;;;;12.10;101064.00;;;;5110660;28;20036;-75
2021/07/11 08:57:22;;;;;;;36.85;21.90;;;;;12.30;101063.00;;;;5109779;28;20098;-75
2021/07/11 08:59:50;;;;;;;32.10;21.55;;;;;12.30;101100.00;;;;5110925;28;20028;-75
2021/07/11 09:02:16;;;;;;;29.55;18.63;;;;;12.40;101075.00;;;;5110658;28;20042;-75
2021/07/11 09:04:46;;;;;;;29.30;19.42;;;;;12.40;101066.00;;;;5109638;28;20134;-75
2021/07/11 09:07:21;;;;;;;27.17;20.92;;;;;12.50;101081.00;;;;5110030;28;20072;-75
2021/07/11 09:09:57;;;;;;;25.73;20.08;;;;;12.60;101095.00;;;;5110070;28;20024;-75
2021/07/11 09:12:24;;;;;;;33.30;21.52;;;;;12.60;101102.00;;;;5110034;28;20367;-75
2021/07/11 09:14:52;;;;;;;25.67;20.95;;;;;12.70;101116.00;;;;5110656;28;20832;-75
2021/07/11 09:17:19;;;;;;;30.88;22.27;;;;;12.90;101093.00;;;;5109629;28;20031;-75
2021/07/11 09:19:51;;;;;;;21.50;18.30;;;;;12.90;101104.00;;;;5109961;28;20059;-75
2021/07/11 09:22:20;;;;;;;32.40;23.13;;;;;13.00;101111.00;;;;5109492;28;20500;-75
2021/07/11 09:24:53;;;;;;;36.47;23.10;;;;;13.10;101110.00;;;;5110399;28;20044;-75
2021/07/11 09:27:32;;;;;;;33.80;24.70;;;;;13.30;101111.00;;;;5109632;28;20038;-75
2021/07/11 09:30:09;;;;;;;38.60;24.90;;;;;13.50;101095.00;;;;5110097;28;20020;-75
2021/07/11 09:32:36;;;;;;;40.50;26.13;;;;;13.50;101117.00;;;;5109789;28;20367;-75
2021/07/11 09:35:18;;;;;;;31.88;23.67;;;;;13.60;101120.00;;;;5109384;28;20031;-75
2021/07/11 09:37:47;;;;;;;41.47;24.42;;;;;13.60;101101.00;;;;5109799;28;20444;-75
2021/07/11 09:40:18;;;;;;;38.38;21.73;;;;;13.60;101089.00;;;;5109582;28;20032;-75
2021/07/11 09:42:45;;;;;;;;;;;;;13.60;101094.00;;;;5110356;28;20391;-75
2021/07/11 09:45:21;;;;;;;31.92;21.20;;;;;13.70;101105.00;;;;5109196;28;20298;-75
2021/07/11 09:47:51;;;;;;;34.30;22.90;;;;;13.60;101095.00;;;;5109317;28;20039;-75
2021/07/11 09:50:23;;;;;;;30.73;22.27;;;;;13.60;101092.00;;;;5109621;28;20019;-75
2021/07/11 09:52:55;;;;;;;30.73;22.70;;;;;13.60;101117.00;;;;5108937;28;20028;-75
2021/07/11 09:55:27;;;;;;;35.88;20.27;;;;;13.60;101124.00;;;;5108864;28;20181;-75
2021/07/11 09:57:57;;;;;;;41.50;22.40;;;;;13.50;101121.00;;;;5108695;28;20020;-75
2021/07/11 10:00:28;;;;;;;26.50;16.33;;;;;13.00;101105.00;;;;5109445;28;20031;-76
2021/07/11 10:03:03;;;;;;;21.63;16.73;;;;;12.50;101093.00;;;;5109419;28;20131;-75
2021/07/11 10:05:30;;;;;;;23.17;16.52;;;;;12.20;101103.00;;;;5108888;28;20067;-75
2021/07/11 10:07:58;;;;;;;22.55;17.33;;;;;12.00;101120.00;;;;5108497;28;20114;-75
2021/07/11 10:10:28;;;;;;;24.08;18.83;;;;;12.00;101117.00;;;;5108970;28;20032;-75
2021/07/11 10:12:55;;;;;;;32.13;18.98;;;;;12.00;101120.00;;;;5108744;28;20595;-75
2021/07/11 10:15:25;;;;;;;25.73;18.48;;;;;12.00;101124.00;;;;5108470;28;20114;-75
2021/07/11 10:17:57;;;;;;;27.45;19.90;;;;;12.00;101121.00;;;;5108646;28;20028;-75
2021/07/11 10:20:52;;;;;;;29.98;19.85;;;;;11.90;101136.00;;;;5108863;28;20027;-75
2021/07/11 10:23:34;;;;;;;28.40;19.33;;;;;12.00;101109.00;;;;5108690;28;20038;-75
2021/07/11 10:26:04;;;;;;;26.85;19.30;;;;;12.00;101144.00;;;;5108313;28;20495;-75
2021/07/11 10:28:33;;;;;;;27.67;20.48;;;;;12.10;101143.00;;;;5108686;28;20036;-75
2021/07/11 10:31:02;;;;;;;38.40;22.58;;;;;12.20;101122.00;;;;5108379;28;20127;-75
2021/07/11 10:33:30;;;;;;;29.02;20.35;;;;;12.30;101136.00;;;;5109092;28;20525;-75
2021/07/11 10:36:06;;;;;;;35.60;21.40;;;;;12.30;101147.00;;;;5089962;28;20071;-75
2021/07/11 10:38:50;;;;;;;28.98;20.92;;;;;12.40;101142.00;;;;5109062;28;20027;-75
2021/07/11 10:41:28;;;;;;;32.45;21.50;;;;;12.40;101154.00;;;;5107997;28;20023;-76
2021/07/11 10:44:03;;;;;;;25.90;20.45;;;;;12.50;101160.00;;;;5108664;28;20118;-75
2021/07/11 10:46:41;;;;;;;31.52;20.42;;;;;12.60;101128.00;;;;5108429;28;20031;-75
2021/07/11 10:49:17;;;;;;;31.45;19.52;;;;;12.60;101151.00;;;;5108481;28;20654;-75
2021/07/11 10:51:49;;;;;;;28.70;18.92;;;;;12.70;101156.00;;;;5107880;28;20027;-75
2021/07/11 10:54:35;;;;;;;28.95;19.77;;;;;12.70;101169.00;;;;5108499;28;20672;-75
2021/07/11 10:57:05;;;;;;;24.35;19.05;;;;;12.70;101136.00;;;;5107838;28;20043;-75
2021/07/11 10:59:39;;;;;;;26.42;19.52;;;;;12.80;101136.00;;;;5090269;28;20030;-76
2021/07/11 11:02:35;;;;;;;29.35;18.52;;;;;12.70;101158.00;;;;5108252;28;20072;-75
2021/07/11 11:05:02;;;;;;;30.02;18.30;;;;;12.50;101143.00;;;;5090553;28;20486;-75
2021/07/11 11:07:43;;;;;;;26.20;18.02;;;;;12.40;101137.00;;;;5107078;28;20031;-75
2021/07/11 11:10:34;;;;;;;21.40;17.95;;;;;12.40;101162.00;;;;5107495;28;20081;-75
2021/07/11 11:13:03;;;;;;;;;;;;;12.40;101172.00;;;;5108638;28;20027;-75
2021/07/11 11:15:46;;;;;;;29.63;17.60;;;;;12.40;101167.00;;;;5107291;28;19922;-75
2021/07/11 11:18:12;;;;;;;27.02;18.30;;;;;12.40;101143.00;;;;5089812;28;20581;-75
2021/07/11 11:20:39;;;;;;;20.58;17.98;;;;;12.60;101115.00;;;;5107540;28;20041;-75
2021/07/11 11:23:09;;;;;;;23.63;16.58;;;;;12.60;101156.00;;;;5107432;28;20149;-75
2021/07/11 11:25:36;;;;;;;24.00;18.00;;;;;12.60;101147.00;;;;5089285;28;20099;-75
2021/07/11 11:28:03;;;;;;;26.92;18.08;;;;;12.70;101168.00;;;;5107756;28;20031;-76
2021/07/11 11:30:30;;;;;;;28.48;18.48;;;;;12.70;101191.00;;;;5107683;28;20525;-76
2021/07/11 11:33:00;;;;;;;20.83;16.63;;;;;12.70;101172.00;;;;5107857;28;20528;-76
2021/07/11 11:35:33;;;;;;;18.92;16.25;;;;;12.70;101169.00;;;;5109183;28;20061;-77
2021/07/11 11:38:05;;;;;;;20.75;17.48;;;;;12.70;101170.00;;;;5111171;28;20106;-75
2021/07/11 11:40:36;;;;;;;27.85;16.33;;;;;12.80;101171.00;;;;5108802;28;20126;-75
2021/07/11 11:43:07;;;;;;;27.42;16.15;;;;;12.90;101155.00;;;;5107859;28;20036;-75
2021/07/11 11:45:35;;;;;;;24.52;15.85;;;;;13.10;101156.00;;;;5107204;28;20028;-75
2021/07/11 11:48:12;;;;;;;20.30;14.73;;;;;13.20;101166.00;;;;5107048;28;20510;-74
2021/07/11 11:50:40;;;;;;;16.58;14.07;;;;;13.30;101154.00;;;;5107299;28;20033;-75
2021/07/11 11:53:12;;;;;;;16.33;12.77;;;;;13.20;101169.00;;;;5107147;28;20031;-75
2021/07/11 11:55:39;;;;;;;;;;;;;13.30;101176.00;;;;5107364;28;20039;-75
2021/07/11 11:58:08;;;;;;;18.13;12.85;;;;;13.30;101186.00;;;;5106773;28;19918;-75
2021/07/11 12:00:36;;;;;;;16.20;12.93;;;;;13.20;101187.00;;;;5106965;28;20059;-75